Map

Track Data

SID SEASON NUMBER BASIN SUBBASIN NAME ISO_TIME NATURE LAT LON WMO_WIND WMO_PRES WMO_AGENCY TRACK_TYPE DIST2LAND LANDFALL IFLAG USA_AGENCY USA_ATCF_ID USA_LAT USA_LON USA_RECORD USA_STATUS USA_WIND USA_PRES USA_SSHS USA_R34_NE USA_R34_SE USA_R34_SW USA_R34_NW USA_R50_NE USA_R50_SE USA_R50_SW USA_R50_NW USA_R64_NE USA_R64_SE USA_R64_SW USA_R64_NW USA_POCI USA_ROCI USA_RMW USA_EYE TOKYO_LAT TOKYO_LON TOKYO_GRADE TOKYO_WIND TOKYO_PRES TOKYO_R50_DIR TOKYO_R50_LONG TOKYO_R50_SHORT TOKYO_R30_DIR TOKYO_R30_LONG TOKYO_R30_SHORT TOKYO_LAND CMA_LAT CMA_LON CMA_CAT CMA_WIND CMA_PRES HKO_LAT HKO_LON HKO_CAT HKO_WIND HKO_PRES NEWDELHI_LAT NEWDELHI_LON NEWDELHI_GRADE NEWDELHI_WIND NEWDELHI_PRES NEWDELHI_CI NEWDELHI_DP NEWDELHI_POCI REUNION_LAT REUNION_LON REUNION_TYPE REUNION_WIND REUNION_PRES REUNION_TNUM REUNION_CI REUNION_RMW REUNION_R34_NE REUNION_R34_SE REUNION_R34_SW REUNION_R34_NW REUNION_R50_NE REUNION_R50_SE REUNION_R50_SW REUNION_R50_NW REUNION_R64_NE REUNION_R64_SE REUNION_R64_SW REUNION_R64_NW BOM_LAT BOM_LON BOM_TYPE BOM_WIND BOM_PRES BOM_TNUM BOM_CI BOM_RMW BOM_R34_NE BOM_R34_SE BOM_R34_SW BOM_R34_NW BOM_R50_NE BOM_R50_SE BOM_R50_SW BOM_R50_NW BOM_R64_NE BOM_R64_SE BOM_R64_SW BOM_R64_NW BOM_ROCI BOM_POCI BOM_EYE BOM_POS_METHOD BOM_PRES_METHOD NADI_LAT NADI_LON NADI_CAT NADI_WIND NADI_PRES WELLINGTON_LAT WELLINGTON_LON WELLINGTON_WIND WELLINGTON_PRES DS824_LAT DS824_LON DS824_STAGE DS824_WIND DS824_PRES TD9636_LAT TD9636_LON TD9636_STAGE TD9636_WIND TD9636_PRES TD9635_LAT TD9635_LON TD9635_WIND TD9635_PRES TD9635_ROCI NEUMANN_LAT NEUMANN_LON NEUMANN_CLASS NEUMANN_WIND NEUMANN_PRES MLC_LAT MLC_LON MLC_CLASS MLC_WIND MLC_PRES USA_GUST BOM_GUST BOM_GUST_PER REUNION_GUST REUNION_GUST_PER USA_SEAHGT USA_SEARAD_NE USA_SEARAD_SE USA_SEARAD_SW USA_SEARAD_NW STORM_SPEED STORM_DIR
1971142N12267 1971 50 EP MM AGATHA 1971-05-21 12:00:00 TS 12.2000 -93.1000 45 hurdat_epa main 264 261 O________OO___ hurdat_epa EP011971 12.2000 -93.1000 TS 45 0 12.2000 -93.1000 TC 45 12.2000 -93.1000 1 8 292
1971142N12267 1971 50 EP MM AGATHA 1971-05-21 15:00:00 TS 12.3545 -93.4911 main 272 272 P________PP___ EP011971 12.3627 -93.4998 TS 45 0 12.3627 -93.4998 TC 45 12.3217 -93.4562 1 8 291
1971142N12267 1971 50 EP MM AGATHA 1971-05-21 18:00:00 TS 12.4889 -93.8880 45 hurdat_epa main 289 289 O________OP___ hurdat_epa EP011971 12.5000 -93.9000 TS 45 0 12.5000 -93.9000 TC 45 12.4446 -93.8400 1 8 287
1971142N12267 1971 50 EP MM AGATHA 1971-05-21 21:00:00 TS 12.5939 -94.3059 main 311 311 P________PP___ EP011971 12.5998 -94.3127 TS 45 0 12.5998 -94.3127 TC 45 12.5702 -94.2788 1 9 283
1971142N12267 1971 50 EP MM AGATHA 1971-05-22 00:00:00 TS 12.7000 -94.8000 45 hurdat_epa main 342 335 O________OO___ hurdat_epa EP011971 12.7000 -94.8000 TS 45 0 12.7000 -94.8000 TC 45 12.7000 -94.8000 2 11 283
1971142N12267 1971 50 EP MM AGATHA 1971-05-22 03:00:00 TS 12.8410 -95.4139 main 335 296 P________PP___ EP011971 12.8425 -95.4125 TS 45 0 12.8425 -95.4125 TC 45 12.8352 -95.4194 2 13 283
1971142N12267 1971 50 EP MM AGATHA 1971-05-22 06:00:00 TS 12.9957 -96.1010 45 hurdat_epa main 296 279 O________OP___ hurdat_epa EP011971 13.0000 -96.1000 TS 45 0 13.0000 -96.1000 TC 45 12.9783 -96.1052 2 14 283
1971142N12267 1971 50 EP MM AGATHA 1971-05-22 09:00:00 TS 13.1464 -96.8087 main 280 268 P________PP___ EP011971 13.1500 -96.8075 TS 45 0 13.1500 -96.8075 TC 45 13.1321 -96.8133 2 14 283
1971142N12267 1971 50 EP MM AGATHA 1971-05-22 12:00:00 TS 13.3000 -97.5000 45 hurdat_epa main 275 275 O________OO___ hurdat_epa EP011971 13.3000 -97.5000 TS 45 0 13.3000 -97.5000 TC 45 13.3000 -97.5000 2 13 283
1971142N12267 1971 50 EP MM AGATHA 1971-05-22 15:00:00 TS 13.4425 -98.1286 main 292 279 P________PP___ EP011971 13.4348 -98.1227 TS 55 0 13.4348 -98.1227 TC 55 13.4733 -98.1524 2 12 285
1971142N12267 1971 50 EP MM AGATHA 1971-05-22 18:00:00 TS 13.6125 -98.7140 65 hurdat_epa main 285 279 O________OP___ hurdat_epa EP011971 13.6000 -98.7000 HU 65 1 13.6000 -98.7000 TC 65 13.6625 -98.7699 2 12 289
1971142N12267 1971 50 EP MM AGATHA 1971-05-22 21:00:00 TS 13.8361 -99.2955 main 289 273 P________PP___ EP011971 13.8275 -99.2875 HU 70 1 13.8275 -99.2875 TC 70 13.8704 -99.3274 2 12 295
1971142N12267 1971 50 EP MM AGATHA 1971-05-23 00:00:00 TS 14.1000 -99.8000 75 hurdat_epa main 277 262 O________OO___ hurdat_epa EP011971 14.1000 -99.8000 HU 75 1 14.1000 -99.8000 TC 75 14.1000 -99.8000 4 10 302
1971142N12267 1971 50 EP MM AGATHA 1971-05-23 03:00:00 TS 14.3921 -100.200 main 262 239 P________PP___ EP011971 14.3999 -100.203 HU 75 1 14.3999 -100.203 TC 75 14.3609 -100.190 4 9 311
1971142N12267 1971 50 EP MM AGATHA 1971-05-23 06:00:00 TS 14.6883 -100.499 75 hurdat_epa main 239 223 O________OP___ hurdat_epa EP011971 14.7000 -100.500 HU 75 1 14.7000 -100.500 TC 75 14.6418 -100.493 4 8 318
1971142N12267 1971 50 EP MM AGATHA 1971-05-23 09:00:00 TS 14.9513 -100.729 main 218 211 P________PP___ EP011971 14.9574 -100.730 HU 75 1 14.9574 -100.730 TC 75 14.9268 -100.724 4 6 323
1971142N12267 1971 50 EP MM AGATHA 1971-05-23 12:00:00 TS 15.2000 -100.900 75 hurdat_epa main 211 197 O________OO___ hurdat_epa EP011971 15.2000 -100.900 HU 75 1 15.2000 -100.900 TC 75 15.2000 -100.900 4 6 328
1971142N12267 1971 50 EP MM AGATHA 1971-05-23 15:00:00 TS 15.4538 -101.053 main 190 173 P________PP___ EP011971 15.4575 -101.058 HU 75 1 15.4575 -101.058 TC 75 15.4391 -101.035 4 6 331
1971142N12267 1971 50 EP MM AGATHA 1971-05-23 18:00:00 TS 15.6929 -101.185 75 972 hurdat_epa main 173 154 O________OP___ hurdat_epa EP011971 15.7000 -101.200 HU 75 972 1 15.7000 -101.200 TC 75 972 15.6646 -101.123 4 5 330
1971142N12267 1971 50 EP MM AGATHA 1971-05-23 21:00:00 TS 15.9026 -101.320 main 154 138 P________PP___ EP011971 15.9075 -101.350 HU 75 1 15.9075 -101.350 TC 75 15.8829 -101.200 4 5 327
1971142N12267 1971 50 EP MM AGATHA 1971-05-24 00:00:00 TS 16.1000 -101.460 75 hurdat_epa main 140 123 O________OO___ hurdat_epa EP011971 16.1000 -101.500 HU 75 1 16.1000 -101.500 TC 75 16.1000 -101.300 4 5 324
1971142N12267 1971 50 EP MM AGATHA 1971-05-24 03:00:00 TS 16.2966 -101.618 main 123 109 P________PP___ EP011971 16.2925 -101.650 HU 75 1 16.2925 -101.650 TC 75 16.3130 -101.491 4 5 323
1971142N12267 1971 50 EP MM AGATHA 1971-05-24 06:00:00 TS 16.5055 -101.781 75 hurdat_epa main 116 108 O________OP___ hurdat_epa EP011971 16.5000 -101.800 HU 75 1 16.5000 -101.800 TC 75 16.5277 -101.707 4 5 324
1971142N12267 1971 50 EP MM AGATHA 1971-05-24 09:00:00 TS 16.7387 -101.950 main 108 89 P________PP___ EP011971 16.7350 -101.958 HU 80 1 16.7350 -101.958 TC 80 16.7536 -101.920 4 6 328
1971142N12267 1971 50 EP MM AGATHA 1971-05-24 12:00:00 TS 17.0000 -102.100 85 hurdat_epa main 89 67 O________OO___ hurdat_epa EP011971 17.0000 -102.100 HU 85 2 17.0000 -102.100 TC 85 17.0000 -102.100 4 6 335
1971142N12267 1971 50 EP MM AGATHA 1971-05-24 15:00:00 TS 17.2887 -102.218 main 67 33 P________PP___ EP011971 17.2925 -102.215 HU 80 1 17.2925 -102.215 TC 80 17.2736 -102.228 4 6 342
1971142N12267 1971 50 EP MM AGATHA 1971-05-24 18:00:00 TS 17.5952 -102.302 75 hurdat_epa main 33 0 O________OP___ hurdat_epa EP011971 17.6000 -102.300 HU 75 1 17.6000 -102.300 TC 75 17.5698 -102.310 4 6 348
1971142N12267 1971 50 EP MM AGATHA 1971-05-24 21:00:00 TS 17.8779 -102.352 main 10 0 P________PP___ EP011971 17.8775 -102.350 HU 50 0 17.8775 -102.350 TC 50 17.8811 -102.363 4 6 351
1971142N12267 1971 50 EP MM AGATHA 1971-05-25 00:00:00 TS 18.2000 -102.400 25 hurdat_epa main 0 0 O________OO___ hurdat_epa EP011971 18.2000 -102.400 TD 25 -1 18.2000 -102.400 TC 25 18.2000 -102.400 4 8 351
1971142N12267 1971 50 EP MM AGATHA 1971-05-25 03:00:00 TS 18.6350 -102.485 main 0 0 P________P____ EP011971 18.6350 -102.485 TD 25 -1 18.6350 -102.485 TC 25 4 9 348
1971142N12267 1971 50 EP MM AGATHA 1971-05-25 06:00:00 MX 19.1000 -102.600 25 hurdat_epa main 0 0 O________O____ hurdat_epa EP011971 19.1000 -102.600 TD 25 -1 19.1000 -102.600 25 4 9 344
1971142N12267 1971 50 EP MM AGATHA 1971-05-25 09:00:00 MX 19.5175 -102.742 main 0 0 P________P____ EP011971 19.5175 -102.742 TD 25 -1 19.5175 -102.742 25 4 9 341
1971142N12267 1971 50 EP MM AGATHA 1971-05-25 12:00:00 MX 19.9000 -102.900 25 hurdat_epa main 0 O________O____ hurdat_epa EP011971 19.9000 -102.900 TD 25 -1 19.9000 -102.900 25 8 339

About IBTrACS Database

This database is a web-friendly format of International Best Track Archive for Climate Stewardship (IBTrACS), a global best track data archive curated by NOAA dating back to 1842.

Updated: 2021-10-08